Airfield :
LOGIN :

Register | Disclaimer

   EN    FR    IT 

 










Legend :    VFR   Marginal VFR   IFR   Intensive IFR   Very Intensive IFR
Visi :
Ceiling :
>= 8 km
>= 3000ft
5 to 8 km
1000 to 3000 ft
1500m to 5 km
500 to 1000 ft
800 to 1500m
200 to 500 ft
< 800m
< 200 ft
Symbols :   Thunderstorms  Fog  Heavy snow  Heavy precipitations  Wind > 20 kt
SIGMETs :     Misc.  Thunderstorms  Icing  Turbulence  Mountain Waves  Volcanic Ashes






- Airport Elevation : 779 ft
- IATA code : CMF


LFLB - Chambery / Aix-Les-Bains

CURRENT METAR :
  • 172030Z AUTO VRB02KT 9999 BKN058/// OVC068/// ///TCU 14/13 Q1017

EXPIRED METARs :
  • 172000Z AUTO VRB03KT 9999 -RADZ OVC064/// ///TCU 14/13 Q1017
  • 171930Z AUTO 10003KT 9000 -RA OVC064 14/13 Q1017
  • 171900Z AUTO VRB02KT 9999 OVC066 14/13 Q1016 NOSIG
  • 171830Z AUTO 28002KT 9999 OVC068 15/13 Q1017 NOSIG
  • 171800Z AUTO 00000KT 9999 OVC068 15/13 Q1016 NOSIG

TAF TAF LFLB
Valid from the 17 at 12:00 until the 18 at 12:00 UTC


171100Z 1712/1812 18006KT CAVOK
TEMPO 1715/1722 VRB05KT -RA BKN050
TEMPO 1807/1812 RA BKN060



MET'MAP, your aeronautical weather chart ! - Copyright ORBIFLY December 2007 - Disclaimer

ORBIFLY MET'MAP TEAM :

Programming & Development : Alexandra Zaïnal
Concept & Development : Baudouin d'Aumeries
Co-Development & Prog : Marc-Olivier Méhu
Technical & hardware support : Manuel Goepfert

Contact : metmap@orbifly.com




SOURCES & CREDITS :

   NOAA